Time;durP1;ratioP1;P1;durP2;ratioP2;P2;SDS_P1;SDS_P2;PMS_P1;PMS_P2;Temp;Humidity;BMP_temperature;BMP_pressure;BME280_temperature;BME280_humidity;BME280_pressure;Samples;Min_cycle;Max_cycle;Signal;HPM_P1;HPM_P2
2021/12/25 00:02:01;;;;;;;0.10;0.10;;;;;;;;;;5032814;28;20442;-73
2021/12/25 00:04:27;;;;;;;0.10;0.10;;;;;;;;;;5029024;28;20377;-72
2021/12/25 00:06:53;;;;;;;0.03;0.03;;;;;;;;;;5034489;28;20040;-72
2021/12/25 00:09:19;;;;;;;0.22;0.22;;;;;;;;;;5041544;28;20025;-72
2021/12/25 00:11:45;;;;;;;0.20;0.20;;;;;;;;;;5031697;28;20036;-74
2021/12/25 00:14:12;;;;;;;0.00;0.00;;;;;;;;;;5031339;28;20026;-72
2021/12/25 00:16:38;;;;;;;0.20;0.20;;;;;;;;;;5037412;28;20419;-72
2021/12/25 00:19:05;;;;;;;0.25;0.25;;;;;;;;;;5029288;28;20594;-73
2021/12/25 00:21:31;;;;;;;0.10;0.10;;;;;;;;;;5038141;28;20037;-72
2021/12/25 00:23:56;;;;;;;0.10;0.10;;;;;;;;;;5038764;28;20087;-72
2021/12/25 00:26:37;;;;;;;0.38;0.38;;;;;;;;;;5031137;28;20033;-72
2021/12/25 00:29:27;;;;;;;0.13;0.13;;;;;;;;;;5044898;28;20041;-72
2021/12/25 00:34:42;;;;;;;0.10;0.10;;;;;;;;;;5034627;28;20034;-74
2021/12/25 00:37:08;;;;;;;0.25;0.25;;;;;;;;;;5035292;28;20113;-73
2021/12/25 00:39:35;;;;;;;0.00;0.00;;;;;;;;;;5039978;28;20033;-71
2021/12/25 00:42:01;;;;;;;0.10;0.10;;;;;;;;;;5031575;28;20065;-72
2021/12/25 00:44:28;;;;;;;0.08;0.08;;;;;;;;;;5037600;28;20040;-72
2021/12/25 00:46:54;;;;;;;0.03;0.03;;;;;;;;;;5038796;28;20036;-73
2021/12/25 00:49:20;;;;;;;0.00;0.00;;;;;;;;;;5034726;28;20568;-74
2021/12/25 00:51:46;;;;;;;0.35;0.35;;;;;;;;;;5042237;28;20112;-73
2021/12/25 00:54:15;;;;;;;0.10;0.10;;;;;;;;;;5034571;28;20056;-73
2021/12/25 00:56:40;;;;;;;0.10;0.10;;;;;;;;;;5029809;28;20528;-73
2021/12/25 00:59:06;;;;;;;0.20;0.20;;;;;;;;;;5041636;28;20032;-74
2021/12/25 01:01:33;;;;;;;0.30;0.30;;;;;;;;;;5036996;28;20025;-73
2021/12/25 01:03:59;;;;;;;0.15;0.15;;;;;;;;;;5033195;28;20060;-72
2021/12/25 01:06:24;;;;;;;0.00;0.00;;;;;;;;;;5029839;28;20052;-73
2021/12/25 01:08:50;;;;;;;0.10;0.10;;;;;;;;;;5036356;28;20454;-73
2021/12/25 01:11:16;;;;;;;0.10;0.10;;;;;;;;;;5038065;28;20087;-72
2021/12/25 01:14:11;;;;;;;0.03;0.03;;;;;;;;;;5029368;28;20029;-73
2021/12/25 01:17:06;;;;;;;0.10;0.10;;;;;;;;;;5042506;28;20044;-72
2021/12/25 01:19:46;;;;;;;0.10;0.10;;;;;;;;;;5035472;28;20408;-72
2021/12/25 01:25:28;;;;;;;0.10;0.10;;;;;;;;;;5029509;28;20041;-72
2021/12/25 01:28:35;;;;;;;0.08;0.08;;;;;;;;;;5031792;28;20468;-72
2021/12/25 01:30:52;;;;;;;0.00;0.00;;;;;;;;;;5036873;28;20033;-72
2021/12/25 01:33:50;;;;;;;0.10;0.10;;;;;;;;;;5034708;28;20550;-72
2021/12/25 01:36:34;;;;;;;0.10;0.10;;;;;;;;;;5038717;28;20061;-72
2021/12/25 01:39:19;;;;;;;0.10;0.10;;;;;;;;;;5041435;28;20033;-72
2021/12/25 01:42:03;;;;;;;0.10;0.10;;;;;;;;;;5037892;28;20119;-73
2021/12/25 01:50:02;;;;;;;0.45;0.45;;;;;;;;;;5042070;28;20082;-72
2021/12/25 01:52:30;;;;;;;0.00;0.00;;;;;;;;;;5035797;28;20434;-73
2021/12/25 01:55:09;;;;;;;2.50;1.33;;;;;;;;;;5038140;28;20028;-72
2021/12/25 01:57:35;;;;;;;0.10;0.10;;;;;;;;;;5036067;28;20116;-73
2021/12/25 02:00:01;;;;;;;0.00;0.00;;;;;;;;;;5032523;28;20132;-72
2021/12/25 02:02:28;;;;;;;0.63;0.57;;;;;;;;;;5049277;28;20128;-73
2021/12/25 02:04:54;;;;;;;0.10;0.10;;;;;;;;;;5043388;28;20116;-73
2021/12/25 02:07:20;;;;;;;0.10;0.10;;;;;;;;;;5042261;28;20030;-73
2021/12/25 02:09:46;;;;;;;0.08;0.08;;;;;;;;;;5039584;28;20051;-73
2021/12/25 02:12:14;;;;;;;0.15;0.15;;;;;;;;;;5036130;28;20036;-73
2021/12/25 02:14:43;;;;;;;0.08;0.08;;;;;;;;;;5032605;28;20038;-74
2021/12/25 02:17:27;;;;;;;0.10;0.10;;;;;;;;;;5050257;28;20061;-74
2021/12/25 02:20:13;;;;;;;1.10;0.68;;;;;;;;;;5040780;28;20052;-73
2021/12/25 02:22:40;;;;;;;0.08;0.08;;;;;;;;;;5032713;28;20029;-73
2021/12/25 02:25:06;;;;;;;0.17;0.17;;;;;;;;;;5033335;28;20111;-74
2021/12/25 02:27:32;;;;;;;0.10;0.10;;;;;;;;;;5031924;28;20049;-73
2021/12/25 02:29:58;;;;;;;1.27;1.17;;;;;;;;;;5037788;28;20025;-73
2021/12/25 02:32:24;;;;;;;0.10;0.10;;;;;;;;;;5048376;28;20384;-73
2021/12/25 02:34:50;;;;;;;0.25;0.25;;;;;;;;;;5037500;28;20033;-72
2021/12/25 02:37:16;;;;;;;0.10;0.10;;;;;;;;;;5042385;28;20164;-73
2021/12/25 02:39:42;;;;;;;0.10;0.10;;;;;;;;;;5043790;28;20056;-73
2021/12/25 02:42:09;;;;;;;0.30;0.30;;;;;;;;;;5047245;28;20036;-73
2021/12/25 02:44:35;;;;;;;0.00;0.00;;;;;;;;;;5040263;28;20037;-73
2021/12/25 02:47:09;;;;;;;2.38;2.03;;;;;;;;;;5040618;28;20040;-73
2021/12/25 02:49:38;;;;;;;0.00;0.00;;;;;;;;;;5033358;28;20555;-73
2021/12/25 02:52:06;;;;;;;2.10;0.88;;;;;;;;;;5035078;28;20534;-73
2021/12/25 02:54:32;;;;;;;1.02;0.55;;;;;;;;;;5036914;28;20037;-72
2021/12/25 02:56:58;;;;;;;0.13;0.13;;;;;;;;;;5036916;28;20041;-73
2021/12/25 02:59:24;;;;;;;0.38;0.32;;;;;;;;;;5041367;28;20045;-73
2021/12/25 03:01:49;;;;;;;0.10;0.10;;;;;;;;;;5035582;28;20884;-73
2021/12/25 03:04:15;;;;;;;0.17;0.17;;;;;;;;;;5033993;28;20037;-71
2021/12/25 03:06:41;;;;;;;0.05;0.05;;;;;;;;;;5037615;28;20040;-73
2021/12/25 03:09:08;;;;;;;0.38;0.38;;;;;;;;;;5048499;28;20750;-73
2021/12/25 03:11:34;;;;;;;0.10;0.10;;;;;;;;;;5037841;28;20037;-73
2021/12/25 03:14:30;;;;;;;0.00;0.00;;;;;;;;;;5059442;28;20036;-74
2021/12/25 03:16:56;;;;;;;0.00;0.00;;;;;;;;;;5042353;28;20033;-73
2021/12/25 03:19:29;;;;;;;0.00;0.00;;;;;;;;;;5041936;28;20035;-73
2021/12/25 03:21:57;;;;;;;0.00;0.00;;;;;;;;;;5030265;28;20064;-73
2021/12/25 03:24:23;;;;;;;0.10;0.10;;;;;;;;;;5029914;28;20156;-73
2021/12/25 03:26:52;;;;;;;0.00;0.00;;;;;;;;;;5028264;28;20506;-73
2021/12/25 03:29:18;;;;;;;0.03;0.03;;;;;;;;;;5025194;28;20029;-74
2021/12/25 03:31:45;;;;;;;8.07;1.10;;;;;;;;;;5043064;28;20029;-73
2021/12/25 03:34:11;;;;;;;0.40;0.40;;;;;;;;;;5032752;28;20036;-73
2021/12/25 03:36:37;;;;;;;0.10;0.10;;;;;;;;;;5035082;28;20025;-73
2021/12/25 03:39:03;;;;;;;0.00;0.00;;;;;;;;;;5034080;28;20030;-72
2021/12/25 03:41:29;;;;;;;0.00;0.00;;;;;;;;;;5040966;28;20567;-72
2021/12/25 03:43:56;;;;;;;0.08;0.08;;;;;;;;;;5030050;28;20041;-72
2021/12/25 03:46:22;;;;;;;0.05;0.05;;;;;;;;;;5041006;28;20495;-72
2021/12/25 03:59:32;;;;;;;1.00;0.75;;;;;;;;;;5046439;28;20036;-72
2021/12/25 04:02:03;;;;;;;0.10;0.10;;;;;;;;;;5045897;28;20032;-72
2021/12/25 04:04:38;;;;;;;0.05;0.05;;;;;;;;;;5047300;28;20036;-72
2021/12/25 04:09:33;;;;;;;0.00;0.00;;;;;;;;;;5046217;28;20094;-72
2021/12/25 04:12:01;;;;;;;0.10;0.10;;;;;;;;;;5045978;28;20037;-72
2021/12/25 04:14:26;;;;;;;0.08;0.08;;;;;;;;;;5046293;28;20025;-72
2021/12/25 04:16:53;;;;;;;0.10;0.10;;;;;;;;;;5045498;28;20029;-72
2021/12/25 04:19:19;;;;;;;0.20;0.20;;;;;;;;;;5044841;28;20131;-72
2021/12/25 04:24:18;;;;;;;0.10;0.10;;;;;;;;;;5046866;28;20037;-72
2021/12/25 04:26:45;;;;;;;0.00;0.00;;;;;;;;;;5046163;28;20056;-72
2021/12/25 05:01:56;;;;;;;0.00;0.00;;;;;;;;;;5040604;28;20036;-72
2021/12/25 05:04:28;;;;;;;0.08;0.08;;;;;;;;;;5043241;28;20483;-71
2021/12/25 05:06:54;;;;;;;0.00;0.00;;;;;;;;;;5044574;28;20041;-71
2021/12/25 05:09:20;;;;;;;0.00;0.00;;;;;;;;;;5039958;28;20037;-70
2021/12/25 05:11:46;;;;;;;0.00;0.00;;;;;;;;;;5044740;28;20396;-71
2021/12/25 05:14:12;;;;;;;0.10;0.10;;;;;;;;;;5045759;28;20033;-72
2021/12/25 05:16:39;;;;;;;0.15;0.15;;;;;;;;;;5045100;28;20048;-72
2021/12/25 05:19:05;;;;;;;1.10;0.80;;;;;;;;;;5042226;28;20069;-72
2021/12/25 05:21:31;;;;;;;0.05;0.05;;;;;;;;;;5044852;28;20126;-71
2021/12/25 05:23:58;;;;;;;0.10;0.10;;;;;;;;;;5042832;28;20033;-72
2021/12/25 05:26:24;;;;;;;0.32;0.32;;;;;;;;;;5036220;28;20472;-72
2021/12/25 05:28:58;;;;;;;0.10;0.10;;;;;;;;;;5042987;28;20044;-72
2021/12/25 05:31:25;;;;;;;0.10;0.10;;;;;;;;;;5044419;28;20116;-72
2021/12/25 05:33:51;;;;;;;0.50;0.50;;;;;;;;;;5044210;28;20119;-72
2021/12/25 05:36:17;;;;;;;0.30;0.30;;;;;;;;;;5041096;28;20175;-72
2021/12/25 05:38:43;;;;;;;0.00;0.00;;;;;;;;;;5041760;28;20397;-72
2021/12/25 05:41:11;;;;;;;0.10;0.10;;;;;;;;;;5043952;28;20063;-73
2021/12/25 05:43:37;;;;;;;0.10;0.10;;;;;;;;;;5044711;28;20029;-72
2021/12/25 05:46:03;;;;;;;0.10;0.10;;;;;;;;;;5042882;28;20017;-72
2021/12/25 05:48:35;;;;;;;0.10;0.10;;;;;;;;;;5043902;28;20152;-71
2021/12/25 05:51:01;;;;;;;0.13;0.13;;;;;;;;;;5041811;28;20400;-72
2021/12/25 05:53:26;;;;;;;0.00;0.00;;;;;;;;;;5043831;28;20467;-71
2021/12/25 05:55:52;;;;;;;0.10;0.10;;;;;;;;;;5046269;28;20052;-71
2021/12/25 05:58:18;;;;;;;0.00;0.00;;;;;;;;;;5044190;28;20033;-72
2021/12/25 06:00:44;;;;;;;0.15;0.15;;;;;;;;;;5043234;28;20036;-70
2021/12/25 06:03:10;;;;;;;0.10;0.10;;;;;;;;;;5043721;28;20039;-72
2021/12/25 06:05:36;;;;;;;1.35;1.08;;;;;;;;;;5046820;28;20029;-71
2021/12/25 06:08:02;;;;;;;0.00;0.00;;;;;;;;;;5045738;28;20033;-72
2021/12/25 06:10:28;;;;;;;0.10;0.10;;;;;;;;;;5045134;28;20364;-71
2021/12/25 06:12:57;;;;;;;0.55;0.52;;;;;;;;;;5045597;28;20031;-71
2021/12/25 06:15:24;;;;;;;1.80;0.52;;;;;;;;;;5047452;28;20143;-71
2021/12/25 06:17:50;;;;;;;0.00;0.00;;;;;;;;;;5045521;28;20471;-71
2021/12/25 06:20:16;;;;;;;0.03;0.03;;;;;;;;;;5045451;28;20126;-71
2021/12/25 06:22:42;;;;;;;0.30;0.30;;;;;;;;;;5046983;28;20032;-71
2021/12/25 06:25:08;;;;;;;0.00;0.00;;;;;;;;;;5048139;28;20024;-71
2021/12/25 06:27:34;;;;;;;0.13;0.13;;;;;;;;;;5048248;28;20110;-71
2021/12/25 06:30:00;;;;;;;0.10;0.10;;;;;;;;;;5042875;28;20029;-71
2021/12/25 06:32:26;;;;;;;0.10;0.10;;;;;;;;;;5046947;28;20074;-71
2021/12/25 06:34:52;;;;;;;0.10;0.10;;;;;;;;;;5044216;28;20025;-71
2021/12/25 06:37:19;;;;;;;0.20;0.20;;;;;;;;;;5049948;28;20521;-71
2021/12/25 06:39:46;;;;;;;0.17;0.17;;;;;;;;;;5048428;28;20079;-72
2021/12/25 06:42:12;;;;;;;0.30;0.30;;;;;;;;;;5048042;28;20572;-71
2021/12/25 06:44:38;;;;;;;0.00;0.00;;;;;;;;;;5047917;28;20033;-71
2021/12/25 06:47:04;;;;;;;0.10;0.10;;;;;;;;;;5049083;28;20471;-71
2021/12/25 06:49:30;;;;;;;1.35;1.25;;;;;;;;;;5047024;28;20043;-71
2021/12/25 06:51:56;;;;;;;0.63;0.63;;;;;;;;;;5043146;28;20478;-71
2021/12/25 06:54:22;;;;;;;0.73;0.40;;;;;;;;;;5047412;28;20024;-70
2021/12/25 06:56:48;;;;;;;1.17;1.10;;;;;;;;;;5047580;28;20086;-71
2021/12/25 06:59:15;;;;;;;0.00;0.00;;;;;;;;;;5043468;28;20499;-71
2021/12/25 07:01:41;;;;;;;0.00;0.00;;;;;;;;;;5044214;28;20207;-71
2021/12/25 07:04:07;;;;;;;0.00;0.00;;;;;;;;;;5043141;28;20151;-71
2021/12/25 07:06:34;;;;;;;0.00;0.00;;;;;;;;;;5044574;28;20045;-71
2021/12/25 07:09:00;;;;;;;0.00;0.00;;;;;;;;;;5045819;28;20454;-71
2021/12/25 07:11:26;;;;;;;0.08;0.08;;;;;;;;;;5047206;28;20468;-73
2021/12/25 07:13:52;;;;;;;0.00;0.00;;;;;;;;;;5045732;28;20094;-71
2021/12/25 07:16:18;;;;;;;0.08;0.08;;;;;;;;;;5047807;28;20527;-71
2021/12/25 07:18:44;;;;;;;0.10;0.10;;;;;;;;;;5047696;28;20373;-71
2021/12/25 07:21:10;;;;;;;0.10;0.10;;;;;;;;;;5045267;28;20159;-71
2021/12/25 07:23:36;;;;;;;0.40;0.40;;;;;;;;;;5047441;28;20170;-71
2021/12/25 07:26:02;;;;;;;0.10;0.10;;;;;;;;;;5046331;28;20086;-71
2021/12/25 07:28:28;;;;;;;0.00;0.00;;;;;;;;;;5044989;28;20450;-71
2021/12/25 07:30:56;;;;;;;0.05;0.05;;;;;;;;;;5045414;28;20021;-71
2021/12/25 07:33:22;;;;;;;0.00;0.00;;;;;;;;;;5046207;28;20029;-71
2021/12/25 07:35:48;;;;;;;0.03;0.03;;;;;;;;;;5049255;28;20024;-71
2021/12/25 07:38:15;;;;;;;0.10;0.10;;;;;;;;;;5047068;28;20029;-70
2021/12/25 07:40:41;;;;;;;0.10;0.10;;;;;;;;;;5046479;28;20033;-71
2021/12/25 07:43:07;;;;;;;0.00;0.00;;;;;;;;;;5044329;28;20135;-71
2021/12/25 07:45:33;;;;;;;0.08;0.08;;;;;;;;;;5046584;28;20116;-70
2021/12/25 07:48:02;;;;;;;0.08;0.08;;;;;;;;;;5041320;28;20034;-71
2021/12/25 07:50:31;;;;;;;0.95;0.77;;;;;;;;;;5047689;28;20473;-71
2021/12/25 07:52:57;;;;;;;0.60;0.52;;;;;;;;;;5045099;28;20029;-71
2021/12/25 07:55:23;;;;;;;0.03;0.03;;;;;;;;;;5045860;28;20038;-71
2021/12/25 07:57:49;;;;;;;0.55;0.55;;;;;;;;;;5046124;28;20039;-71
2021/12/25 08:00:16;;;;;;;0.10;0.10;;;;;;;;;;5044773;28;20032;-72
2021/12/25 08:02:42;;;;;;;0.68;0.68;;;;;;;;;;5043630;28;20040;-71
2021/12/25 08:05:09;;;;;;;1.75;1.65;;;;;;;;;;5043917;28;20434;-71
2021/12/25 08:07:34;;;;;;;0.10;0.10;;;;;;;;;;5045739;28;20041;-71
2021/12/25 08:10:22;;;;;;;0.10;0.10;;;;;;;;;;5044873;28;20083;-71
2021/12/25 08:12:48;;;;;;;0.68;0.32;;;;;;;;;;5040923;28;20044;-71
2021/12/25 08:15:15;;;;;;;0.00;0.00;;;;;;;;;;5045152;28;20086;-71
2021/12/25 08:17:41;;;;;;;0.10;0.10;;;;;;;;;;5045490;28;20048;-71
2021/12/25 08:20:07;;;;;;;0.40;0.25;;;;;;;;;;5043234;28;20033;-71
2021/12/25 08:22:34;;;;;;;0.10;0.10;;;;;;;;;;5042318;28;20037;-72
2021/12/25 08:25:00;;;;;;;1.00;0.75;;;;;;;;;;5028336;28;20030;-72
2021/12/25 08:27:25;;;;;;;0.00;0.00;;;;;;;;;;5031292;28;20056;-72
2021/12/25 08:29:51;;;;;;;0.10;0.10;;;;;;;;;;5034816;28;20475;-72
2021/12/25 08:32:17;;;;;;;1.20;1.10;;;;;;;;;;5030178;28;20171;-72
2021/12/25 08:34:44;;;;;;;0.10;0.10;;;;;;;;;;5041453;28;20025;-72
2021/12/25 08:37:10;;;;;;;0.22;0.22;;;;;;;;;;5034667;28;20164;-72
2021/12/25 08:39:36;;;;;;;0.25;0.22;;;;;;;;;;5030166;28;20116;-72
2021/12/25 08:42:04;;;;;;;0.10;0.10;;;;;;;;;;5034167;28;20155;-72
2021/12/25 08:44:35;;;;;;;0.10;0.10;;;;;;;;;;5036439;28;20082;-71
2021/12/25 08:47:04;;;;;;;0.25;0.25;;;;;;;;;;5042279;28;20546;-72
2021/12/25 08:49:30;;;;;;;0.43;0.43;;;;;;;;;;5048325;28;20044;-72
2021/12/25 08:51:57;;;;;;;0.22;0.22;;;;;;;;;;5042327;28;20108;-72
2021/12/25 08:54:23;;;;;;;0.38;0.38;;;;;;;;;;5029949;28;20400;-72
2021/12/25 08:56:49;;;;;;;0.80;0.70;;;;;;;;;;5043461;28;20036;-72
2021/12/25 08:59:15;;;;;;;0.10;0.10;;;;;;;;;;5036404;28;20036;-72
2021/12/25 09:01:41;;;;;;;0.00;0.00;;;;;;;;;;5034669;28;20031;-72
2021/12/25 09:04:07;;;;;;;0.68;0.30;;;;;;;;;;5031204;28;20025;-72
2021/12/25 09:06:33;;;;;;;0.10;0.10;;;;;;;;;;5030419;28;20044;-73
2021/12/25 09:08:59;;;;;;;0.20;0.20;;;;;;;;;;5032915;28;20025;-72
2021/12/25 09:11:25;;;;;;;0.10;0.10;;;;;;;;;;5029738;28;20035;-74
2021/12/25 09:13:52;;;;;;;0.30;0.30;;;;;;;;;;5036347;28;20021;-74
2021/12/25 09:16:18;;;;;;;1.95;0.95;;;;;;;;;;5036586;28;20033;-73
2021/12/25 09:18:46;;;;;;;0.30;0.30;;;;;;;;;;5031066;28;20041;-83
2021/12/25 09:21:12;;;;;;;0.47;0.47;;;;;;;;;;5037566;28;20029;-78
2021/12/25 09:23:38;;;;;;;0.10;0.10;;;;;;;;;;5032617;28;20029;-74
2021/12/25 09:26:04;;;;;;;0.20;0.20;;;;;;;;;;5038332;28;20473;-74
2021/12/25 09:28:30;;;;;;;0.10;0.10;;;;;;;;;;5033179;28;20129;-74
2021/12/25 09:30:56;;;;;;;0.10;0.10;;;;;;;;;;5032772;28;20028;-73
2021/12/25 09:33:22;;;;;;;0.35;0.35;;;;;;;;;;5033529;28;20052;-73
2021/12/25 09:35:48;;;;;;;0.32;0.30;;;;;;;;;;5030272;28;20017;-74
2021/12/25 09:38:14;;;;;;;0.00;0.00;;;;;;;;;;5044541;28;20411;-74
2021/12/25 09:40:40;;;;;;;0.10;0.10;;;;;;;;;;5035530;28;20036;-74
2021/12/25 09:43:06;;;;;;;2.17;1.55;;;;;;;;;;5041501;28;20037;-73
2021/12/25 09:45:32;;;;;;;0.10;0.10;;;;;;;;;;5029819;28;20068;-73
2021/12/25 09:47:58;;;;;;;0.85;0.85;;;;;;;;;;5038564;28;20499;-77
2021/12/25 09:50:24;;;;;;;0.10;0.10;;;;;;;;;;5042450;28;20112;-75
2021/12/25 09:52:49;;;;;;;0.10;0.10;;;;;;;;;;5045211;28;20029;-73
2021/12/25 09:55:16;;;;;;;0.17;0.17;;;;;;;;;;5048599;28;20032;-74
2021/12/25 09:57:42;;;;;;;0.20;0.20;;;;;;;;;;5044773;28;20073;-77
2021/12/25 10:00:13;;;;;;;0.10;0.10;;;;;;;;;;5048436;28;20052;-74
2021/12/25 10:02:44;;;;;;;0.10;0.10;;;;;;;;;;5045217;28;20043;-82
2021/12/25 10:05:10;;;;;;;0.28;0.28;;;;;;;;;;5048016;28;20136;-77
2021/12/25 10:07:36;;;;;;;0.63;0.63;;;;;;;;;;5046845;28;20380;-75
2021/12/25 10:10:05;;;;;;;0.10;0.10;;;;;;;;;;5048489;28;20021;-83
2021/12/25 10:12:51;;;;;;;0.10;0.10;;;;;;;;;;5047422;28;20021;-77
2021/12/25 10:15:19;;;;;;;0.10;0.10;;;;;;;;;;5046308;28;20028;-77
2021/12/25 10:17:49;;;;;;;0.65;0.65;;;;;;;;;;5044652;28;20052;-75
2021/12/25 10:20:17;;;;;;;0.32;0.32;;;;;;;;;;5047347;28;20060;-79
2021/12/25 10:22:55;;;;;;;0.00;0.00;;;;;;;;;;5042037;28;20091;-79
2021/12/25 10:25:21;;;;;;;0.55;0.52;;;;;;;;;;5044941;28;20043;-78
2021/12/25 10:27:49;;;;;;;0.13;0.13;;;;;;;;;;5035341;28;20037;-79
2021/12/25 10:30:15;;;;;;;0.10;0.10;;;;;;;;;;5031292;28;20383;-77
2021/12/25 10:32:43;;;;;;;0.10;0.10;;;;;;;;;;5042390;28;20143;-79
2021/12/25 10:35:17;;;;;;;0.10;0.10;;;;;;;;;;5036039;28;20029;-77
2021/12/25 10:37:44;;;;;;;0.10;0.10;;;;;;;;;;5036260;28;20503;-81
2021/12/25 10:40:24;;;;;;;0.00;0.00;;;;;;;;;;5041722;28;20119;-84
2021/12/25 10:42:55;;;;;;;0.08;0.08;;;;;;;;;;5034632;28;20473;-84
2021/12/25 10:45:22;;;;;;;0.10;0.10;;;;;;;;;;5036403;28;20045;-91
2021/12/25 10:47:59;;;;;;;0.10;0.10;;;;;;;;;;5036844;28;20026;-77
2021/12/25 10:50:25;;;;;;;0.10;0.10;;;;;;;;;;5037768;28;20033;-83
2021/12/25 10:52:51;;;;;;;0.88;0.85;;;;;;;;;;5037760;28;20017;-75
2021/12/25 10:55:21;;;;;;;0.10;0.10;;;;;;;;;;5034998;28;20105;-85
2021/12/25 10:57:49;;;;;;;0.35;0.35;;;;;;;;;;5035467;28;20053;-81
2021/12/25 11:00:27;;;;;;;0.13;0.13;;;;;;;;;;5032196;28;20033;-78
2021/12/25 11:03:04;;;;;;;0.05;0.05;;;;;;;;;;5036419;28;20567;-76
2021/12/25 11:05:32;;;;;;;1.65;0.65;;;;;;;;;;5037754;28;20069;-76
2021/12/25 11:08:08;;;;;;;0.50;0.50;;;;;;;;;;5035961;28;20025;-83
2021/12/25 11:10:48;;;;;;;0.20;0.20;;;;;;;;;;5037839;28;20047;-77
2021/12/25 11:13:33;;;;;;;0.15;0.15;;;;;;;;;;5036096;28;20029;-81
2021/12/25 11:16:05;;;;;;;0.57;0.57;;;;;;;;;;5035112;28;20052;-84
2021/12/25 11:18:33;;;;;;;0.13;0.13;;;;;;;;;;5032153;28;20116;-79
2021/12/25 11:20:59;;;;;;;0.10;0.10;;;;;;;;;;5035730;28;20056;-81
2021/12/25 11:23:27;;;;;;;0.00;0.00;;;;;;;;;;5037419;28;20139;-79
2021/12/25 11:25:53;;;;;;;0.10;0.10;;;;;;;;;;5036499;28;20053;-78
2021/12/25 11:28:19;;;;;;;0.10;0.10;;;;;;;;;;5039788;28;20065;-83
2021/12/25 11:30:47;;;;;;;0.10;0.10;;;;;;;;;;5035194;28;20026;-77
2021/12/25 11:33:13;;;;;;;0.00;0.00;;;;;;;;;;5036336;28;20049;-73
2021/12/25 11:35:40;;;;;;;0.10;0.10;;;;;;;;;;5042384;28;20032;-74
2021/12/25 11:38:07;;;;;;;0.00;0.00;;;;;;;;;;5032005;28;20521;-78
2021/12/25 11:40:37;;;;;;;0.00;0.00;;;;;;;;;;5040092;28;20403;-74
2021/12/25 11:43:04;;;;;;;0.10;0.10;;;;;;;;;;5039760;28;20025;-84
2021/12/25 11:45:36;;;;;;;0.05;0.05;;;;;;;;;;5040308;28;20033;-74
2021/12/25 11:48:13;;;;;;;0.05;0.05;;;;;;;;;;5038438;28;20505;-76
2021/12/25 11:50:42;;;;;;;0.10;0.10;;;;;;;;;;5041600;28;20476;-73
2021/12/25 11:58:52;;;;;;;0.20;0.20;;;;;;;;;;5034545;28;20116;-72
2021/12/25 12:01:18;;;;;;;;;;;;;;;;;;5036660;28;20104;-71
2021/12/25 12:03:46;;;;;;;0.10;0.10;;;;;;;;;;5033109;28;20039;-72
2021/12/25 12:06:13;;;;;;;0.00;0.00;;;;;;;;;;5031280;28;20028;-70
2021/12/25 12:08:54;;;;;;;0.00;0.00;;;;;;;;;;5043031;28;20176;-70
2021/12/25 12:11:24;;;;;;;0.10;0.10;;;;;;;;;;5032237;28;20020;-71
2021/12/25 12:14:12;;;;;;;0.10;0.10;;;;;;;;;;5038625;28;20037;-72
2021/12/25 12:16:42;;;;;;;0.93;0.65;;;;;;;;;;5032432;28;20037;-75
2021/12/25 12:19:27;;;;;;;0.10;0.10;;;;;;;;;;5033342;28;20078;-73
2021/12/25 12:21:53;;;;;;;0.00;0.00;;;;;;;;;;5029386;28;20435;-73
2021/12/25 12:24:40;;;;;;;0.20;0.20;;;;;;;;;;5038204;28;20088;-73
2021/12/25 12:27:06;;;;;;;0.35;0.35;;;;;;;;;;5044391;28;20147;-73
2021/12/25 12:29:43;;;;;;;0.08;0.08;;;;;;;;;;5034114;28;20037;-72
2021/12/25 12:32:31;;;;;;;0.00;0.00;;;;;;;;;;5032655;28;20030;-69
2021/12/25 12:34:57;;;;;;;0.10;0.10;;;;;;;;;;5030434;28;20641;-70
2021/12/25 12:37:24;;;;;;;0.03;0.03;;;;;;;;;;5040287;28;20044;-71
2021/12/25 12:39:59;;;;;;;0.00;0.00;;;;;;;;;;5033472;28;20033;-72
2021/12/25 12:42:44;;;;;;;0.00;0.00;;;;;;;;;;5037712;28;20053;-72
2021/12/25 12:45:11;;;;;;;0.00;0.00;;;;;;;;;;5040014;28;20041;-70
2021/12/25 12:47:37;;;;;;;0.10;0.10;;;;;;;;;;5037533;28;20029;-73
2021/12/25 12:50:03;;;;;;;11.30;0.50;;;;;;;;;;5034993;28;20037;-73
2021/12/25 12:52:37;;;;;;;0.73;0.73;;;;;;;;;;5027805;28;20394;-73
2021/12/25 12:55:25;;;;;;;0.00;0.00;;;;;;;;;;5036427;28;20021;-73
2021/12/25 12:58:05;;;;;;;0.00;0.00;;;;;;;;;;5039043;28;20029;-74
2021/12/25 13:00:31;;;;;;;0.13;0.13;;;;;;;;;;5040122;28;20036;-71
2021/12/25 13:02:58;;;;;;;0.00;0.00;;;;;;;;;;5035403;28;20388;-71
2021/12/25 13:05:26;;;;;;;0.90;0.47;;;;;;;;;;5033724;28;20061;-71
2021/12/25 13:07:53;;;;;;;0.10;0.10;;;;;;;;;;5046696;28;20749;-72
2021/12/25 13:10:25;;;;;;;0.00;0.00;;;;;;;;;;5033353;28;20424;-70
2021/12/25 13:12:57;;;;;;;0.10;0.10;;;;;;;;;;5042882;28;20029;-71
2021/12/25 13:15:26;;;;;;;;;;;;;;;;;;5037319;28;20026;-72
2021/12/25 13:18:02;;;;;;;0.10;0.10;;;;;;;;;;5033298;28;20275;-73
2021/12/25 13:20:37;;;;;;;0.65;0.30;;;;;;;;;;5029972;28;20026;-71
2021/12/25 13:23:05;;;;;;;0.00;0.00;;;;;;;;;;5034410;28;20120;-71
2021/12/25 13:25:31;;;;;;;0.10;0.10;;;;;;;;;;5039261;28;20033;-71
2021/12/25 13:27:58;;;;;;;0.00;0.00;;;;;;;;;;5042665;28;20077;-69
2021/12/25 13:30:26;;;;;;;0.10;0.10;;;;;;;;;;5034261;28;20029;-71
2021/12/25 13:32:52;;;;;;;0.00;0.00;;;;;;;;;;5042809;28;20040;-73
2021/12/25 13:35:22;;;;;;;0.20;0.20;;;;;;;;;;5044378;28;20022;-71
2021/12/25 13:37:56;;;;;;;0.13;0.13;;;;;;;;;;5038506;28;20029;-69
2021/12/25 13:40:22;;;;;;;0.00;0.00;;;;;;;;;;5044313;28;20033;-70
2021/12/25 13:42:48;;;;;;;0.08;0.08;;;;;;;;;;5045376;28;20476;-70
2021/12/25 13:45:14;;;;;;;0.00;0.00;;;;;;;;;;5044791;28;20494;-70
2021/12/25 13:47:43;;;;;;;0.88;0.30;;;;;;;;;;5047863;28;20025;-69
2021/12/25 13:50:10;;;;;;;0.00;0.00;;;;;;;;;;5042781;28;20017;-70
2021/12/25 13:52:40;;;;;;;0.05;0.05;;;;;;;;;;5039527;28;20033;-70
2021/12/25 13:55:11;;;;;;;0.40;0.40;;;;;;;;;;5036643;28;20053;-72
2021/12/25 13:57:39;;;;;;;1.85;1.65;;;;;;;;;;5034452;28;20135;-70
2021/12/25 14:00:08;;;;;;;0.75;0.28;;;;;;;;;;5041322;28;20037;-71
2021/12/25 14:02:34;;;;;;;0.10;0.10;;;;;;;;;;5037103;28;20467;-71
2021/12/25 14:05:01;;;;;;;0.50;0.50;;;;;;;;;;5036946;28;20029;-70
2021/12/25 14:07:28;;;;;;;0.55;0.55;;;;;;;;;;5042865;28;20836;-71
2021/12/25 14:09:55;;;;;;;1.23;1.00;;;;;;;;;;5037518;28;20028;-71
2021/12/25 14:12:22;;;;;;;1.48;1.38;;;;;;;;;;5037131;28;20025;-70
2021/12/25 14:14:49;;;;;;;1.98;1.20;;;;;;;;;;5042752;28;20460;-70
2021/12/25 14:17:15;;;;;;;0.22;0.22;;;;;;;;;;5039266;28;20037;-72
2021/12/25 14:19:41;;;;;;;0.17;0.17;;;;;;;;;;5037668;28;20360;-78
2021/12/25 14:22:07;;;;;;;5.93;0.95;;;;;;;;;;5037281;28;20029;-73
2021/12/25 14:24:47;;;;;;;0.10;0.10;;;;;;;;;;5035567;28;20041;-74
2021/12/25 14:27:14;;;;;;;0.13;0.13;;;;;;;;;;5034560;28;20252;-73
2021/12/25 14:29:41;;;;;;;1.02;0.98;;;;;;;;;;5035389;28;20026;-73
2021/12/25 14:32:20;;;;;;;0.35;0.35;;;;;;;;;;5034554;28;20029;-74
2021/12/25 14:34:46;;;;;;;0.10;0.10;;;;;;;;;;5033591;28;20035;-74
2021/12/25 14:37:12;;;;;;;0.28;0.28;;;;;;;;;;5038027;28;20466;-74
2021/12/25 14:39:38;;;;;;;0.75;0.75;;;;;;;;;;5040791;28;20035;-75
2021/12/25 14:42:04;;;;;;;0.30;0.30;;;;;;;;;;5037479;28;20058;-74
2021/12/25 14:44:34;;;;;;;0.00;0.00;;;;;;;;;;5043420;28;20037;-73
2021/12/25 14:47:13;;;;;;;0.05;0.05;;;;;;;;;;5037220;28;20033;-73
2021/12/25 14:49:43;;;;;;;0.10;0.10;;;;;;;;;;5039260;28;20029;-74
2021/12/25 14:52:13;;;;;;;4.03;0.73;;;;;;;;;;5035049;28;20468;-74
2021/12/25 14:54:39;;;;;;;0.00;0.00;;;;;;;;;;5035632;28;20112;-73
2021/12/25 14:57:06;;;;;;;0.00;0.00;;;;;;;;;;5034222;28;20033;-74
2021/12/25 14:59:32;;;;;;;0.00;0.00;;;;;;;;;;5033527;28;20028;-73
2021/12/25 15:02:00;;;;;;;0.10;0.10;;;;;;;;;;5043080;28;20035;-77
2021/12/25 15:04:28;;;;;;;0.63;0.63;;;;;;;;;;5038762;28;20519;-73
2021/12/25 15:06:55;;;;;;;0.10;0.10;;;;;;;;;;5035818;28;20064;-74
2021/12/25 15:09:23;;;;;;;0.10;0.10;;;;;;;;;;5051321;28;20033;-71
2021/12/25 15:11:51;;;;;;;0.10;0.10;;;;;;;;;;5035594;28;20088;-71
2021/12/25 15:14:19;;;;;;;0.00;0.00;;;;;;;;;;5041579;28;20033;-73
2021/12/25 15:16:48;;;;;;;0.00;0.00;;;;;;;;;;5038998;28;20112;-73
2021/12/25 15:19:29;;;;;;;0.00;0.00;;;;;;;;;;5033587;28;20069;-76
2021/12/25 15:21:56;;;;;;;0.10;0.10;;;;;;;;;;5043395;28;20032;-73
2021/12/25 15:24:23;;;;;;;0.57;0.50;;;;;;;;;;5046831;28;20038;-73
2021/12/25 15:26:53;;;;;;;0.00;0.00;;;;;;;;;;5036880;28;20041;-70
2021/12/25 15:29:19;;;;;;;0.10;0.10;;;;;;;;;;5039364;28;20395;-70
2021/12/25 15:31:46;;;;;;;0.00;0.00;;;;;;;;;;5036354;28;20026;-70
2021/12/25 15:34:15;;;;;;;0.00;0.00;;;;;;;;;;5035771;28;20060;-70
2021/12/25 15:36:43;;;;;;;3.40;0.63;;;;;;;;;;5048258;28;20021;-70
2021/12/25 15:39:10;;;;;;;0.00;0.00;;;;;;;;;;5041401;28;20025;-72
2021/12/25 15:41:36;;;;;;;0.00;0.00;;;;;;;;;;5043171;28;20040;-71
2021/12/25 15:44:02;;;;;;;0.25;0.25;;;;;;;;;;5036191;28;20021;-73
2021/12/25 15:46:28;;;;;;;0.00;0.00;;;;;;;;;;5034681;28;20036;-72
2021/12/25 15:48:54;;;;;;;0.00;0.00;;;;;;;;;;5038762;28;20099;-72
2021/12/25 15:51:20;;;;;;;0.13;0.13;;;;;;;;;;5029959;28;20026;-72
2021/12/25 15:53:46;;;;;;;0.00;0.00;;;;;;;;;;5037833;28;20128;-73
2021/12/25 15:56:12;;;;;;;1.17;0.57;;;;;;;;;;5037025;28;20028;-72
2021/12/25 15:58:38;;;;;;;0.73;0.50;;;;;;;;;;5035190;28;20056;-72